Flight Track Log - Related Links

Times and Time Zones

All times are in EDT time to prevent confusion due to time zone crossing. See the ASQ5678 flight status page for this flight to view local times or setup timezone preferences in your user account.

Time Position Orientation Groundspeed Altitude Reporting Facility
EDT Latitude Longitude Course Direction KTS MPH feet Rate Location/Type
Fri 02:11:33 PM 29.9661 -95.3456 90° East 168 193 500  Level Houston Center
Fri 02:12:35 PM 29.9242 -95.3000 137° Southeast 238 274 1,900 1,588 Climbing Houston Center
Fri 02:13:15 PM 29.8986 -95.2625 128° Southeast 238 274 3,200 1,235 Climbing Houston Center
Fri 02:14:17 PM 29.8486 -95.1975 132° Southeast 257 296 4,000 1,210 Climbing Houston Center
Fri 02:15:00 PM 29.9834 -94.9119 90° East  Level FlightAware
Fri 02:15:19 PM 29.8153 -95.1233 117° Southeast 277 319 5,700  Level Houston Center
Fri 02:16:00 PM 29.9834 -94.8065 90° East  Level FlightAware
Fri 02:16:21 PM 29.8331 -95.0389 76° East 271 312 8,100  Level Houston Center
Fri 02:17:23 PM 29.8569 -94.9306 76° East 284 327 10,500 1,597 Climbing Houston Center
Fri 02:18:25 PM 29.8806 -94.8289 75° East 317 365 11,400 1,113 Climbing Houston Center
Fri 02:19:27 PM 29.9050 -94.7161 76° East 354 407 12,800 1,355 Climbing Houston Center
Fri 02:20:29 PM 29.9306 -94.6019 75° East 365 420 14,200 1,210 Climbing Houston Center
Fri 02:21:31 PM 29.9561 -94.4847 76° East 374 430 15,300 1,008 Climbing Houston Center
Fri 02:22:34 PM 29.9819 -94.3664 76° East 385 443 16,300 1,104 Climbing Houston Center
Fri 02:23:36 PM 30.0064 -94.2203 79° East 386 444 17,600 1,161 Climbing Houston Center
Fri 02:24:38 PM 30.0222 -94.0950 82° East 394 453 18,700 1,065 Climbing Houston Center
Fri 02:25:40 PM 30.0378 -93.9703 82° East 394 453 19,800 1,065 Climbing Houston Center
Fri 02:26:42 PM 30.0536 -93.8442 82° East 399 459 20,900 1,065 Climbing Houston Center
Fri 02:27:44 PM 30.0694 -93.7158 82° East 403 464 22,000 1,016 Climbing Houston Center
Fri 02:28:46 PM 30.0875 -93.5600 82° East 410 472 23,000 484 Climbing Houston Center
Fri 02:29:48 PM 30.1033 -93.4228 82° East 435 501 23,000  Level Houston Center
Fri 02:30:50 PM 30.1203 -93.2794 82° East 455 524 23,000 -629 Level Houston Center
Fri 02:31:52 PM 30.1378 -93.1328 82° East 465 535 21,700 -1,776 Descending Houston Center
Fri 02:32:55 PM 30.1472 -92.9600 86° East 452 520 19,300 -2,256 Descending Houston Center
Fri 02:33:57 PM 30.1550 -92.8275 86° East 422 486 17,000 -2,371 Descending Houston Center
Fri 02:34:59 PM 30.1622 -92.6975 86° East 410 472 14,400 -2,177 Descending Houston Center
Fri 02:36:01 PM 30.1681 -92.5775 87° East 383 441 12,500 -1,694 Descending Houston Center
Fri 02:37:03 PM 30.1719 -92.4758 87° East 326 375 10,900 -1,984 Descending Houston Center
Fri 02:38:05 PM 30.1619 -92.3825 97° East 308 354 8,400 -2,565 Descending Houston Center
Fri 02:39:07 PM 30.1231 -92.2831 114° Southeast 287 330 5,600 -2,371 Descending Houston Center
Fri 02:40:09 PM 30.0897 -92.2036 116° Southeast 278 320 3,500 -1,440 Descending Houston Center
Fri 02:41:12 PM 30.0825 -92.1294 96° East 251 289 2,600 -857 Descending Houston Center

Login

Don't have an account? Register now (free) for customized features, flight alerts, and more!